Huvudsida
METAR-TAF:

METAR-TAF

Flygplatser :

Dusjanbes internationella flygplats

Dusjanbe, Tadzjikistan

latitud: 38-33N, longitud: 068-47E, höjd: 803 m

Aktuellt väderrapport

Denna rapport gjordes för 21 minuter sedan, klockan 07:30 UTC
Vind 6 kt från sydväst, varierande mellan sydost och väst
Temperatur 28°C
Fuktighet 20%
Tryck 1018 hPa
Sikt 10 km eller mer

METAR: UTDD 250730Z 23003MPS 130V280 9999 NSC 28/03 Q1018 R09/D NOSIG RMK QFE695/0926

Tid: 12:51 (07:51 UTC)

Väderprognos

Denna rapport gjordes för 1 timme och 51 minuter sedan, klockan 06:00 UTC
Prognos gäller från 25 kl. 07 UTC till 25 kl. 19 UTC
Vind 4 kt varierande vindriktning
Sikt: 6000 m
Få moln på en höjd av 6600 ft, Cumulonimbus.
Spridda moln på en höjd av 13000 ft
Temporärt
från 25 kl. 10 UTC till 25 kl. 16 UTC
Vind 10 kt från väst

TAF: UTDD 250600Z 2507/2519 VRB02MPS 6000 FEW066CB SCT130 TEMPO 2510/2516 26005MPS

Aktuella väderrapporter och prognoser från 4000 flygplatser (METAR- och TAF-rapporter).

De tillgängliga stationerna syns som gula och röda prickar på kartan.

För musen över prickarna för att se namnen på stationerna.

Klicka sedan för att få väderrapporter och prognoser.

För att ändra kartan: Klicka på de gröna knapparna med ett svart kors på för att zooma in; den gröna knappen med ett streck på för att zooma ut; eller på de gröna pilarna för angränsande kartor.


METAR-TAF: